sensor_id;sensor_type;location;lat;lon;timestamp;P1;durP1;ratioP1;P2;durP2;ratioP2
21181;SDS011;10749;46.296;7.524;2023-08-01T00:01:56;5.22;;;2.80;;
21181;SDS011;10749;46.296;7.524;2023-08-01T00:04:21;4.00;;;2.85;;
21181;SDS011;10749;46.296;7.524;2023-08-01T00:06:47;3.67;;;2.83;;
21181;SDS011;10749;46.296;7.524;2023-08-01T00:09:12;5.35;;;2.88;;
21181;SDS011;10749;46.296;7.524;2023-08-01T00:11:37;3.55;;;2.78;;
21181;SDS011;10749;46.296;7.524;2023-08-01T00:14:04;4.72;;;3.03;;
21181;SDS011;10749;46.296;7.524;2023-08-01T00:16:29;5.07;;;3.17;;
21181;SDS011;10749;46.296;7.524;2023-08-01T00:18:54;7.68;;;3.10;;
21181;SDS011;10749;46.296;7.524;2023-08-01T00:21:20;5.30;;;3.28;;
21181;SDS011;10749;46.296;7.524;2023-08-01T00:23:45;5.13;;;3.22;;
21181;SDS011;10749;46.296;7.524;2023-08-01T00:26:10;4.57;;;3.20;;
21181;SDS011;10749;46.296;7.524;2023-08-01T00:28:38;4.78;;;3.13;;
21181;SDS011;10749;46.296;7.524;2023-08-01T00:31:07;4.38;;;2.50;;
21181;SDS011;10749;46.296;7.524;2023-08-01T00:33:36;3.95;;;2.50;;
21181;SDS011;10749;46.296;7.524;2023-08-01T00:36:01;4.65;;;2.72;;
21181;SDS011;10749;46.296;7.524;2023-08-01T00:38:27;5.30;;;2.97;;
21181;SDS011;10749;46.296;7.524;2023-08-01T00:40:53;3.65;;;2.53;;
21181;SDS011;10749;46.296;7.524;2023-08-01T00:43:19;4.97;;;2.97;;
21181;SDS011;10749;46.296;7.524;2023-08-01T00:45:45;3.88;;;2.90;;
21181;SDS011;10749;46.296;7.524;2023-08-01T00:48:11;4.63;;;2.70;;
21181;SDS011;10749;46.296;7.524;2023-08-01T00:50:36;3.70;;;2.72;;
21181;SDS011;10749;46.296;7.524;2023-08-01T00:53:01;3.92;;;2.55;;
21181;SDS011;10749;46.296;7.524;2023-08-01T00:55:27;3.80;;;2.75;;
21181;SDS011;10749;46.296;7.524;2023-08-01T00:57:54;4.18;;;3.08;;
21181;SDS011;10749;46.296;7.524;2023-08-01T01:00:19;3.40;;;2.55;;
21181;SDS011;10749;46.296;7.524;2023-08-01T01:02:45;5.47;;;2.70;;
21181;SDS011;10749;46.296;7.524;2023-08-01T01:05:10;3.83;;;2.40;;
21181;SDS011;10749;46.296;7.524;2023-08-01T01:07:38;4.85;;;2.83;;
21181;SDS011;10749;46.296;7.524;2023-08-01T01:10:04;4.60;;;2.60;;
21181;SDS011;10749;46.296;7.524;2023-08-01T01:12:30;5.50;;;2.85;;
21181;SDS011;10749;46.296;7.524;2023-08-01T01:14:55;4.40;;;2.70;;
21181;SDS011;10749;46.296;7.524;2023-08-01T01:17:20;3.88;;;2.70;;
21181;SDS011;10749;46.296;7.524;2023-08-01T01:19:45;5.30;;;2.92;;
21181;SDS011;10749;46.296;7.524;2023-08-01T01:22:11;3.13;;;2.35;;
21181;SDS011;10749;46.296;7.524;2023-08-01T01:24:37;4.82;;;2.63;;
21181;SDS011;10749;46.296;7.524;2023-08-01T01:27:05;3.85;;;2.70;;
21181;SDS011;10749;46.296;7.524;2023-08-01T01:29:32;4.93;;;2.80;;
21181;SDS011;10749;46.296;7.524;2023-08-01T01:31:59;5.70;;;2.45;;
21181;SDS011;10749;46.296;7.524;2023-08-01T01:34:26;3.72;;;2.70;;
21181;SDS011;10749;46.296;7.524;2023-08-01T01:36:53;4.90;;;2.92;;
21181;SDS011;10749;46.296;7.524;2023-08-01T01:39:18;4.80;;;2.97;;
21181;SDS011;10749;46.296;7.524;2023-08-01T01:41:43;4.65;;;3.00;;
21181;SDS011;10749;46.296;7.524;2023-08-01T01:44:09;4.60;;;2.72;;
21181;SDS011;10749;46.296;7.524;2023-08-01T01:46:34;6.22;;;2.97;;
21181;SDS011;10749;46.296;7.524;2023-08-01T01:48:59;5.00;;;2.70;;
21181;SDS011;10749;46.296;7.524;2023-08-01T01:51:25;4.78;;;3.00;;
21181;SDS011;10749;46.296;7.524;2023-08-01T01:53:51;6.47;;;3.20;;
21181;SDS011;10749;46.296;7.524;2023-08-01T01:56:17;6.13;;;2.88;;
21181;SDS011;10749;46.296;7.524;2023-08-01T01:58:42;3.80;;;2.67;;
21181;SDS011;10749;46.296;7.524;2023-08-01T02:01:07;3.03;;;2.63;;
21181;SDS011;10749;46.296;7.524;2023-08-01T02:03:33;6.47;;;2.88;;
21181;SDS011;10749;46.296;7.524;2023-08-01T02:05:58;5.78;;;2.75;;
21181;SDS011;10749;46.296;7.524;2023-08-01T02:08:23;4.38;;;2.70;;
21181;SDS011;10749;46.296;7.524;2023-08-01T02:10:49;4.43;;;3.00;;
21181;SDS011;10749;46.296;7.524;2023-08-01T02:13:14;6.32;;;3.10;;
21181;SDS011;10749;46.296;7.524;2023-08-01T02:15:39;4.38;;;3.10;;
21181;SDS011;10749;46.296;7.524;2023-08-01T02:18:05;5.07;;;2.78;;
21181;SDS011;10749;46.296;7.524;2023-08-01T02:20:30;7.90;;;2.92;;
21181;SDS011;10749;46.296;7.524;2023-08-01T02:22:56;7.28;;;3.20;;
21181;SDS011;10749;46.296;7.524;2023-08-01T02:25:21;5.15;;;3.35;;
21181;SDS011;10749;46.296;7.524;2023-08-01T02:27:47;5.25;;;3.50;;
21181;SDS011;10749;46.296;7.524;2023-08-01T02:30:12;5.18;;;2.80;;
21181;SDS011;10749;46.296;7.524;2023-08-01T02:32:37;7.38;;;3.05;;
21181;SDS011;10749;46.296;7.524;2023-08-01T02:35:03;4.57;;;2.90;;
21181;SDS011;10749;46.296;7.524;2023-08-01T02:37:29;6.00;;;3.20;;
21181;SDS011;10749;46.296;7.524;2023-08-01T02:39:54;4.53;;;3.10;;
21181;SDS011;10749;46.296;7.524;2023-08-01T02:42:19;3.80;;;2.95;;
21181;SDS011;10749;46.296;7.524;2023-08-01T02:44:45;5.25;;;3.47;;
21181;SDS011;10749;46.296;7.524;2023-08-01T02:47:10;3.83;;;2.80;;
21181;SDS011;10749;46.296;7.524;2023-08-01T02:49:35;3.53;;;2.60;;
21181;SDS011;10749;46.296;7.524;2023-08-01T02:52:01;3.80;;;3.30;;
21181;SDS011;10749;46.296;7.524;2023-08-01T02:54:26;4.88;;;3.10;;
21181;SDS011;10749;46.296;7.524;2023-08-01T02:56:51;3.20;;;2.50;;
21181;SDS011;10749;46.296;7.524;2023-08-01T02:59:16;4.10;;;2.60;;
21181;SDS011;10749;46.296;7.524;2023-08-01T03:01:44;5.35;;;3.33;;
21181;SDS011;10749;46.296;7.524;2023-08-01T03:04:10;5.85;;;2.80;;
21181;SDS011;10749;46.296;7.524;2023-08-01T03:06:37;4.50;;;2.72;;
21181;SDS011;10749;46.296;7.524;2023-08-01T03:09:03;6.13;;;3.13;;
21181;SDS011;10749;46.296;7.524;2023-08-01T03:11:31;6.28;;;3.30;;
21181;SDS011;10749;46.296;7.524;2023-08-01T03:13:56;7.55;;;3.10;;
21181;SDS011;10749;46.296;7.524;2023-08-01T03:16:21;4.13;;;3.40;;
21181;SDS011;10749;46.296;7.524;2023-08-01T03:18:46;4.82;;;2.75;;
21181;SDS011;10749;46.296;7.524;2023-08-01T03:21:12;4.78;;;2.65;;
21181;SDS011;10749;46.296;7.524;2023-08-01T03:23:38;5.45;;;3.13;;
21181;SDS011;10749;46.296;7.524;2023-08-01T03:26:03;3.92;;;3.00;;
21181;SDS011;10749;46.296;7.524;2023-08-01T03:28:29;5.30;;;3.45;;
21181;SDS011;10749;46.296;7.524;2023-08-01T03:30:55;4.50;;;3.13;;
21181;SDS011;10749;46.296;7.524;2023-08-01T03:33:21;5.18;;;3.25;;
21181;SDS011;10749;46.296;7.524;2023-08-01T03:35:46;4.38;;;3.15;;
21181;SDS011;10749;46.296;7.524;2023-08-01T03:38:11;5.47;;;3.15;;
21181;SDS011;10749;46.296;7.524;2023-08-01T03:40:37;5.38;;;3.08;;
21181;SDS011;10749;46.296;7.524;2023-08-01T03:43:02;5.57;;;3.00;;
21181;SDS011;10749;46.296;7.524;2023-08-01T03:45:27;5.20;;;3.28;;
21181;SDS011;10749;46.296;7.524;2023-08-01T03:47:53;4.50;;;3.20;;
21181;SDS011;10749;46.296;7.524;2023-08-01T03:50:18;5.18;;;3.10;;
21181;SDS011;10749;46.296;7.524;2023-08-01T03:52:43;6.53;;;3.33;;
21181;SDS011;10749;46.296;7.524;2023-08-01T03:55:09;5.55;;;3.00;;
21181;SDS011;10749;46.296;7.524;2023-08-01T03:57:34;5.32;;;3.30;;
21181;SDS011;10749;46.296;7.524;2023-08-01T03:59:59;4.65;;;3.28;;
21181;SDS011;10749;46.296;7.524;2023-08-01T04:02:25;6.35;;;3.00;;
21181;SDS011;10749;46.296;7.524;2023-08-01T04:04:50;4.25;;;3.00;;
21181;SDS011;10749;46.296;7.524;2023-08-01T04:07:16;6.32;;;3.45;;
21181;SDS011;10749;46.296;7.524;2023-08-01T04:09:41;6.18;;;3.08;;
21181;SDS011;10749;46.296;7.524;2023-08-01T04:12:06;4.50;;;2.72;;
21181;SDS011;10749;46.296;7.524;2023-08-01T04:14:33;4.68;;;3.10;;
21181;SDS011;10749;46.296;7.524;2023-08-01T04:16:59;4.20;;;2.80;;
21181;SDS011;10749;46.296;7.524;2023-08-01T04:19:24;3.92;;;2.80;;
21181;SDS011;10749;46.296;7.524;2023-08-01T04:21:50;5.05;;;3.05;;
21181;SDS011;10749;46.296;7.524;2023-08-01T04:24:15;4.47;;;3.65;;
21181;SDS011;10749;46.296;7.524;2023-08-01T04:26:41;4.55;;;3.40;;
21181;SDS011;10749;46.296;7.524;2023-08-01T04:29:06;5.88;;;3.10;;
21181;SDS011;10749;46.296;7.524;2023-08-01T04:31:31;5.78;;;3.00;;
21181;SDS011;10749;46.296;7.524;2023-08-01T04:33:56;5.28;;;3.13;;
21181;SDS011;10749;46.296;7.524;2023-08-01T04:36:22;4.80;;;3.05;;
21181;SDS011;10749;46.296;7.524;2023-08-01T04:38:47;6.25;;;3.30;;
21181;SDS011;10749;46.296;7.524;2023-08-01T04:41:12;5.03;;;3.05;;
21181;SDS011;10749;46.296;7.524;2023-08-01T04:43:38;5.03;;;3.50;;
21181;SDS011;10749;46.296;7.524;2023-08-01T04:46:03;4.63;;;3.40;;
21181;SDS011;10749;46.296;7.524;2023-08-01T04:48:28;5.28;;;3.58;;
21181;SDS011;10749;46.296;7.524;2023-08-01T04:50:54;4.15;;;3.20;;
21181;SDS011;10749;46.296;7.524;2023-08-01T04:53:19;6.28;;;3.65;;
21181;SDS011;10749;46.296;7.524;2023-08-01T04:55:44;4.85;;;3.53;;
21181;SDS011;10749;46.296;7.524;2023-08-01T04:58:09;6.18;;;3.22;;
21181;SDS011;10749;46.296;7.524;2023-08-01T05:00:35;5.75;;;3.45;;
21181;SDS011;10749;46.296;7.524;2023-08-01T05:03:00;4.63;;;3.05;;
21181;SDS011;10749;46.296;7.524;2023-08-01T05:05:26;6.47;;;3.53;;
21181;SDS011;10749;46.296;7.524;2023-08-01T05:07:51;3.92;;;3.20;;
21181;SDS011;10749;46.296;7.524;2023-08-01T05:10:16;5.55;;;3.85;;
21181;SDS011;10749;46.296;7.524;2023-08-01T05:12:41;4.30;;;3.40;;
21181;SDS011;10749;46.296;7.524;2023-08-01T05:15:07;7.40;;;3.55;;
21181;SDS011;10749;46.296;7.524;2023-08-01T05:17:33;4.28;;;3.22;;
21181;SDS011;10749;46.296;7.524;2023-08-01T05:19:58;5.38;;;3.05;;
21181;SDS011;10749;46.296;7.524;2023-08-01T05:22:23;5.05;;;3.08;;
21181;SDS011;10749;46.296;7.524;2023-08-01T05:24:48;4.43;;;3.20;;
21181;SDS011;10749;46.296;7.524;2023-08-01T05:27:14;6.72;;;3.47;;
21181;SDS011;10749;46.296;7.524;2023-08-01T05:29:39;4.78;;;3.17;;
21181;SDS011;10749;46.296;7.524;2023-08-01T05:32:04;3.95;;;2.88;;
21181;SDS011;10749;46.296;7.524;2023-08-01T05:34:30;4.63;;;3.20;;
21181;SDS011;10749;46.296;7.524;2023-08-01T05:36:55;5.47;;;3.22;;
21181;SDS011;10749;46.296;7.524;2023-08-01T05:39:21;4.32;;;3.15;;
21181;SDS011;10749;46.296;7.524;2023-08-01T05:41:46;6.18;;;3.60;;
21181;SDS011;10749;46.296;7.524;2023-08-01T05:44:11;5.32;;;3.67;;
21181;SDS011;10749;46.296;7.524;2023-08-01T05:46:37;7.50;;;3.38;;
21181;SDS011;10749;46.296;7.524;2023-08-01T05:49:02;5.53;;;3.30;;
21181;SDS011;10749;46.296;7.524;2023-08-01T05:51:27;6.68;;;3.38;;
21181;SDS011;10749;46.296;7.524;2023-08-01T05:53:53;5.20;;;3.50;;
21181;SDS011;10749;46.296;7.524;2023-08-01T05:56:18;5.15;;;3.33;;
21181;SDS011;10749;46.296;7.524;2023-08-01T05:58:43;4.57;;;3.28;;
21181;SDS011;10749;46.296;7.524;2023-08-01T06:01:10;5.18;;;4.10;;
21181;SDS011;10749;46.296;7.524;2023-08-01T06:03:35;4.72;;;3.50;;
21181;SDS011;10749;46.296;7.524;2023-08-01T06:06:01;5.93;;;3.58;;
21181;SDS011;10749;46.296;7.524;2023-08-01T06:08:26;5.15;;;3.40;;
21181;SDS011;10749;46.296;7.524;2023-08-01T06:10:51;5.40;;;3.65;;
21181;SDS011;10749;46.296;7.524;2023-08-01T06:13:17;9.80;;;3.90;;
21181;SDS011;10749;46.296;7.524;2023-08-01T06:15:42;7.57;;;3.90;;
21181;SDS011;10749;46.296;7.524;2023-08-01T06:18:07;6.85;;;3.63;;
21181;SDS011;10749;46.296;7.524;2023-08-01T06:20:33;4.05;;;2.97;;
21181;SDS011;10749;46.296;7.524;2023-08-01T06:22:58;5.40;;;3.25;;
21181;SDS011;10749;46.296;7.524;2023-08-01T06:25:24;5.93;;;3.45;;
21181;SDS011;10749;46.296;7.524;2023-08-01T06:27:49;6.30;;;3.40;;
21181;SDS011;10749;46.296;7.524;2023-08-01T06:30:15;4.82;;;2.85;;
21181;SDS011;10749;46.296;7.524;2023-08-01T06:32:40;6.38;;;3.65;;
21181;SDS011;10749;46.296;7.524;2023-08-01T06:35:05;5.85;;;3.28;;
21181;SDS011;10749;46.296;7.524;2023-08-01T06:37:31;7.10;;;4.00;;
21181;SDS011;10749;46.296;7.524;2023-08-01T06:39:57;5.20;;;3.45;;
21181;SDS011;10749;46.296;7.524;2023-08-01T06:42:23;4.78;;;3.28;;
21181;SDS011;10749;46.296;7.524;2023-08-01T06:44:49;6.40;;;3.35;;
21181;SDS011;10749;46.296;7.524;2023-08-01T06:47:14;5.63;;;3.60;;
21181;SDS011;10749;46.296;7.524;2023-08-01T06:49:39;5.72;;;3.42;;
21181;SDS011;10749;46.296;7.524;2023-08-01T06:52:04;5.00;;;3.35;;
21181;SDS011;10749;46.296;7.524;2023-08-01T06:54:31;5.05;;;3.58;;
21181;SDS011;10749;46.296;7.524;2023-08-01T06:56:57;5.78;;;3.50;;
21181;SDS011;10749;46.296;7.524;2023-08-01T06:59:23;4.32;;;3.05;;
21181;SDS011;10749;46.296;7.524;2023-08-01T07:01:49;6.13;;;4.00;;
21181;SDS011;10749;46.296;7.524;2023-08-01T07:04:14;5.15;;;3.70;;
21181;SDS011;10749;46.296;7.524;2023-08-01T07:06:39;6.13;;;3.80;;
21181;SDS011;10749;46.296;7.524;2023-08-01T07:09:05;8.23;;;4.38;;
21181;SDS011;10749;46.296;7.524;2023-08-01T07:11:31;6.75;;;3.65;;
21181;SDS011;10749;46.296;7.524;2023-08-01T07:13:56;7.60;;;4.20;;
21181;SDS011;10749;46.296;7.524;2023-08-01T07:16:22;7.03;;;4.00;;
21181;SDS011;10749;46.296;7.524;2023-08-01T07:18:47;7.43;;;3.88;;
21181;SDS011;10749;46.296;7.524;2023-08-01T07:21:17;6.50;;;4.00;;
21181;SDS011;10749;46.296;7.524;2023-08-01T07:23:42;6.35;;;3.75;;
21181;SDS011;10749;46.296;7.524;2023-08-01T07:26:08;7.97;;;4.20;;
21181;SDS011;10749;46.296;7.524;2023-08-01T07:28:34;6.85;;;3.92;;
21181;SDS011;10749;46.296;7.524;2023-08-01T07:31:00;7.43;;;3.88;;
21181;SDS011;10749;46.296;7.524;2023-08-01T07:33:27;5.53;;;4.07;;
21181;SDS011;10749;46.296;7.524;2023-08-01T07:35:53;5.30;;;4.00;;
21181;SDS011;10749;46.296;7.524;2023-08-01T07:38:18;7.00;;;4.53;;
21181;SDS011;10749;46.296;7.524;2023-08-01T07:40:44;6.47;;;3.97;;
21181;SDS011;10749;46.296;7.524;2023-08-01T07:43:09;6.95;;;4.22;;
21181;SDS011;10749;46.296;7.524;2023-08-01T07:45:36;7.85;;;3.72;;
21181;SDS011;10749;46.296;7.524;2023-08-01T07:48:02;6.60;;;4.22;;
21181;SDS011;10749;46.296;7.524;2023-08-01T07:50:27;5.90;;;4.18;;
21181;SDS011;10749;46.296;7.524;2023-08-01T07:52:53;8.07;;;4.25;;
21181;SDS011;10749;46.296;7.524;2023-08-01T07:55:18;8.63;;;4.07;;
21181;SDS011;10749;46.296;7.524;2023-08-01T07:57:45;6.28;;;4.35;;
21181;SDS011;10749;46.296;7.524;2023-08-01T08:00:11;7.05;;;4.28;;
21181;SDS011;10749;46.296;7.524;2023-08-01T08:02:36;6.78;;;3.90;;
21181;SDS011;10749;46.296;7.524;2023-08-01T08:05:02;8.80;;;4.35;;
21181;SDS011;10749;46.296;7.524;2023-08-01T08:07:27;6.80;;;4.18;;
21181;SDS011;10749;46.296;7.524;2023-08-01T08:09:52;5.78;;;3.97;;
21181;SDS011;10749;46.296;7.524;2023-08-01T08:12:20;5.47;;;3.60;;
21181;SDS011;10749;46.296;7.524;2023-08-01T08:14:48;7.22;;;3.83;;
21181;SDS011;10749;46.296;7.524;2023-08-01T08:17:13;5.50;;;3.70;;
21181;SDS011;10749;46.296;7.524;2023-08-01T08:19:40;6.30;;;3.90;;
21181;SDS011;10749;46.296;7.524;2023-08-01T08:22:05;4.88;;;3.50;;
21181;SDS011;10749;46.296;7.524;2023-08-01T08:24:30;6.43;;;3.70;;
21181;SDS011;10749;46.296;7.524;2023-08-01T08:26:56;6.55;;;4.10;;
21181;SDS011;10749;46.296;7.524;2023-08-01T08:29:21;6.47;;;3.80;;
21181;SDS011;10749;46.296;7.524;2023-08-01T08:31:47;5.72;;;3.88;;
21181;SDS011;10749;46.296;7.524;2023-08-01T08:34:12;7.00;;;3.70;;
21181;SDS011;10749;46.296;7.524;2023-08-01T08:36:37;4.63;;;3.30;;
21181;SDS011;10749;46.296;7.524;2023-08-01T08:39:03;8.55;;;4.30;;
21181;SDS011;10749;46.296;7.524;2023-08-01T08:41:30;7.45;;;4.18;;
21181;SDS011;10749;46.296;7.524;2023-08-01T08:44:01;5.78;;;3.60;;
21181;SDS011;10749;46.296;7.524;2023-08-01T08:46:31;5.05;;;3.60;;
21181;SDS011;10749;46.296;7.524;2023-08-01T08:49:01;4.32;;;3.30;;
21181;SDS011;10749;46.296;7.524;2023-08-01T08:51:26;5.82;;;3.88;;
21181;SDS011;10749;46.296;7.524;2023-08-01T08:53:53;5.45;;;3.55;;
21181;SDS011;10749;46.296;7.524;2023-08-01T08:56:19;5.63;;;3.65;;
21181;SDS011;10749;46.296;7.524;2023-08-01T08:58:45;5.75;;;3.65;;
21181;SDS011;10749;46.296;7.524;2023-08-01T09:01:12;6.50;;;3.97;;
21181;SDS011;10749;46.296;7.524;2023-08-01T09:03:38;6.20;;;3.78;;
21181;SDS011;10749;46.296;7.524;2023-08-01T09:06:16;8.43;;;3.70;;
21181;SDS011;10749;46.296;7.524;2023-08-01T09:08:55;5.50;;;2.97;;
21181;SDS011;10749;46.296;7.524;2023-08-01T09:11:29;4.97;;;3.40;;
21181;SDS011;10749;46.296;7.524;2023-08-01T09:14:03;5.07;;;3.20;;
21181;SDS011;10749;46.296;7.524;2023-08-01T09:16:28;6.45;;;3.30;;
21181;SDS011;10749;46.296;7.524;2023-08-01T09:18:54;4.53;;;3.10;;
21181;SDS011;10749;46.296;7.524;2023-08-01T09:21:22;5.57;;;3.50;;
21181;SDS011;10749;46.296;7.524;2023-08-01T09:23:47;4.75;;;3.58;;
21181;SDS011;10749;46.296;7.524;2023-08-01T09:26:17;6.45;;;3.70;;
21181;SDS011;10749;46.296;7.524;2023-08-01T09:28:43;5.13;;;3.30;;
21181;SDS011;10749;46.296;7.524;2023-08-01T09:31:09;4.72;;;3.20;;
21181;SDS011;10749;46.296;7.524;2023-08-01T09:33:39;4.38;;;2.90;;
21181;SDS011;10749;46.296;7.524;2023-08-01T09:36:06;5.28;;;3.35;;
21181;SDS011;10749;46.296;7.524;2023-08-01T09:38:35;3.85;;;2.88;;
21181;SDS011;10749;46.296;7.524;2023-08-01T09:41:02;8.07;;;3.25;;
21181;SDS011;10749;46.296;7.524;2023-08-01T09:43:35;5.13;;;3.30;;
21181;SDS011;10749;46.296;7.524;2023-08-01T09:46:01;5.88;;;3.20;;
21181;SDS011;10749;46.296;7.524;2023-08-01T09:48:27;4.20;;;3.00;;
21181;SDS011;10749;46.296;7.524;2023-08-01T09:51:10;5.53;;;3.28;;
21181;SDS011;10749;46.296;7.524;2023-08-01T09:56:12;4.72;;;3.28;;
21181;SDS011;10749;46.296;7.524;2023-08-01T09:58:41;4.80;;;3.20;;
21181;SDS011;10749;46.296;7.524;2023-08-01T10:01:08;4.90;;;3.28;;
21181;SDS011;10749;46.296;7.524;2023-08-01T10:03:34;4.40;;;3.17;;
21181;SDS011;10749;46.296;7.524;2023-08-01T10:05:59;8.27;;;3.08;;
21181;SDS011;10749;46.296;7.524;2023-08-01T10:08:25;4.85;;;3.00;;
21181;SDS011;10749;46.296;7.524;2023-08-01T10:10:52;3.80;;;2.95;;
21181;SDS011;10749;46.296;7.524;2023-08-01T10:13:21;5.20;;;3.10;;
21181;SDS011;10749;46.296;7.524;2023-08-01T10:15:49;5.00;;;3.40;;
21181;SDS011;10749;46.296;7.524;2023-08-01T10:18:16;5.00;;;3.08;;
21181;SDS011;10749;46.296;7.524;2023-08-01T10:20:41;4.38;;;3.25;;
21181;SDS011;10749;46.296;7.524;2023-08-01T10:23:08;4.88;;;3.28;;
21181;SDS011;10749;46.296;7.524;2023-08-01T10:25:34;5.25;;;3.10;;
21181;SDS011;10749;46.296;7.524;2023-08-01T10:28:02;3.42;;;2.88;;
21181;SDS011;10749;46.296;7.524;2023-08-01T10:30:29;3.92;;;3.03;;
21181;SDS011;10749;46.296;7.524;2023-08-01T10:32:55;4.05;;;3.25;;
21181;SDS011;10749;46.296;7.524;2023-08-01T10:35:32;5.95;;;2.70;;
21181;SDS011;10749;46.296;7.524;2023-08-01T10:40:37;4.93;;;3.03;;
21181;SDS011;10749;46.296;7.524;2023-08-01T10:43:18;4.40;;;3.42;;
21181;SDS011;10749;46.296;7.524;2023-08-01T10:45:46;4.05;;;3.00;;
21181;SDS011;10749;46.296;7.524;2023-08-01T10:48:11;3.83;;;2.53;;
21181;SDS011;10749;46.296;7.524;2023-08-01T10:50:37;3.50;;;2.38;;
21181;SDS011;10749;46.296;7.524;2023-08-01T10:53:06;4.63;;;3.10;;
21181;SDS011;10749;46.296;7.524;2023-08-01T10:55:42;4.65;;;3.17;;
21181;SDS011;10749;46.296;7.524;2023-08-01T10:58:09;4.05;;;3.00;;
21181;SDS011;10749;46.296;7.524;2023-08-01T11:00:34;3.90;;;2.47;;
21181;SDS011;10749;46.296;7.524;2023-08-01T11:03:00;2.63;;;2.10;;
21181;SDS011;10749;46.296;7.524;2023-08-01T11:05:25;2.85;;;2.38;;
21181;SDS011;10749;46.296;7.524;2023-08-01T11:07:54;2.63;;;2.10;;
21181;SDS011;10749;46.296;7.524;2023-08-01T11:10:20;2.60;;;2.30;;
21181;SDS011;10749;46.296;7.524;2023-08-01T11:12:46;5.18;;;2.35;;
21181;SDS011;10749;46.296;7.524;2023-08-01T11:15:12;2.72;;;2.28;;
21181;SDS011;10749;46.296;7.524;2023-08-01T11:17:39;3.35;;;2.42;;
21181;SDS011;10749;46.296;7.524;2023-08-01T11:20:11;3.78;;;2.28;;
21181;SDS011;10749;46.296;7.524;2023-08-01T11:22:38;3.42;;;2.50;;
21181;SDS011;10749;46.296;7.524;2023-08-01T11:25:13;3.13;;;2.38;;
21181;SDS011;10749;46.296;7.524;2023-08-01T11:27:39;3.35;;;2.38;;
21181;SDS011;10749;46.296;7.524;2023-08-01T11:30:04;3.75;;;2.58;;
21181;SDS011;10749;46.296;7.524;2023-08-01T11:32:37;3.20;;;2.20;;
21181;SDS011;10749;46.296;7.524;2023-08-01T11:35:03;2.92;;;2.20;;
21181;SDS011;10749;46.296;7.524;2023-08-01T11:37:29;2.60;;;2.10;;
21181;SDS011;10749;46.296;7.524;2023-08-01T11:39:55;2.80;;;2.20;;
21181;SDS011;10749;46.296;7.524;2023-08-01T11:42:22;4.90;;;2.40;;
21181;SDS011;10749;46.296;7.524;2023-08-01T11:44:48;3.65;;;2.38;;
21181;SDS011;10749;46.296;7.524;2023-08-01T11:47:16;3.60;;;2.20;;
21181;SDS011;10749;46.296;7.524;2023-08-01T11:49:46;3.10;;;2.75;;
21181;SDS011;10749;46.296;7.524;2023-08-01T11:52:25;2.47;;;2.10;;
21181;SDS011;10749;46.296;7.524;2023-08-01T11:54:51;3.10;;;2.53;;
21181;SDS011;10749;46.296;7.524;2023-08-01T11:57:19;4.45;;;2.40;;
21181;SDS011;10749;46.296;7.524;2023-08-01T11:59:48;3.20;;;2.58;;
21181;SDS011;10749;46.296;7.524;2023-08-01T12:02:21;3.17;;;2.40;;
21181;SDS011;10749;46.296;7.524;2023-08-01T12:04:50;3.10;;;2.75;;
21181;SDS011;10749;46.296;7.524;2023-08-01T12:07:16;2.70;;;2.35;;
21181;SDS011;10749;46.296;7.524;2023-08-01T12:09:42;3.35;;;2.80;;
21181;SDS011;10749;46.296;7.524;2023-08-01T12:12:08;3.25;;;2.47;;
21181;SDS011;10749;46.296;7.524;2023-08-01T12:14:38;3.10;;;2.42;;
21181;SDS011;10749;46.296;7.524;2023-08-01T12:17:04;2.80;;;2.45;;
21181;SDS011;10749;46.296;7.524;2023-08-01T12:19:30;4.05;;;3.00;;
21181;SDS011;10749;46.296;7.524;2023-08-01T12:21:55;2.95;;;2.55;;
21181;SDS011;10749;46.296;7.524;2023-08-01T12:24:21;3.38;;;2.40;;
21181;SDS011;10749;46.296;7.524;2023-08-01T12:26:46;3.13;;;2.30;;
21181;SDS011;10749;46.296;7.524;2023-08-01T12:29:11;3.05;;;2.55;;
21181;SDS011;10749;46.296;7.524;2023-08-01T12:31:37;3.60;;;2.78;;
21181;SDS011;10749;46.296;7.524;2023-08-01T12:34:02;3.95;;;2.88;;
21181;SDS011;10749;46.296;7.524;2023-08-01T12:36:27;3.22;;;2.78;;
21181;SDS011;10749;46.296;7.524;2023-08-01T12:38:53;4.10;;;3.17;;
21181;SDS011;10749;46.296;7.524;2023-08-01T12:41:18;3.42;;;2.72;;
21181;SDS011;10749;46.296;7.524;2023-08-01T12:43:43;3.60;;;3.05;;
21181;SDS011;10749;46.296;7.524;2023-08-01T12:46:09;4.25;;;3.20;;
21181;SDS011;10749;46.296;7.524;2023-08-01T12:48:34;3.38;;;3.00;;
21181;SDS011;10749;46.296;7.524;2023-08-01T12:50:59;3.47;;;2.88;;
21181;SDS011;10749;46.296;7.524;2023-08-01T12:53:25;3.28;;;2.97;;
21181;SDS011;10749;46.296;7.524;2023-08-01T12:55:51;4.45;;;3.10;;
21181;SDS011;10749;46.296;7.524;2023-08-01T12:58:17;3.72;;;3.10;;
21181;SDS011;10749;46.296;7.524;2023-08-01T13:00:43;4.03;;;3.00;;
21181;SDS011;10749;46.296;7.524;2023-08-01T13:03:09;4.15;;;3.20;;
21181;SDS011;10749;46.296;7.524;2023-08-01T13:05:36;4.18;;;3.15;;
21181;SDS011;10749;46.296;7.524;2023-08-01T13:08:03;4.13;;;2.67;;
21181;SDS011;10749;46.296;7.524;2023-08-01T13:10:29;4.65;;;3.13;;
21181;SDS011;10749;46.296;7.524;2023-08-01T13:12:58;4.03;;;3.38;;
21181;SDS011;10749;46.296;7.524;2023-08-01T13:15:24;4.55;;;3.15;;
21181;SDS011;10749;46.296;7.524;2023-08-01T13:17:50;5.22;;;3.30;;
21181;SDS011;10749;46.296;7.524;2023-08-01T13:20:15;4.40;;;2.88;;
21181;SDS011;10749;46.296;7.524;2023-08-01T13:22:42;3.75;;;2.90;;
21181;SDS011;10749;46.296;7.524;2023-08-01T13:25:07;3.35;;;2.80;;
21181;SDS011;10749;46.296;7.524;2023-08-01T13:27:37;3.97;;;3.10;;
21181;SDS011;10749;46.296;7.524;2023-08-01T13:30:02;3.58;;;3.03;;
21181;SDS011;10749;46.296;7.524;2023-08-01T13:32:28;3.63;;;3.00;;
21181;SDS011;10749;46.296;7.524;2023-08-01T13:34:53;3.20;;;2.90;;
21181;SDS011;10749;46.296;7.524;2023-08-01T13:37:19;3.40;;;2.83;;
21181;SDS011;10749;46.296;7.524;2023-08-01T13:39:44;4.50;;;2.92;;
21181;SDS011;10749;46.296;7.524;2023-08-01T13:42:11;4.35;;;3.25;;
21181;SDS011;10749;46.296;7.524;2023-08-01T13:44:39;4.78;;;2.92;;
21181;SDS011;10749;46.296;7.524;2023-08-01T13:47:05;3.63;;;3.22;;
21181;SDS011;10749;46.296;7.524;2023-08-01T13:49:31;3.97;;;3.17;;
21181;SDS011;10749;46.296;7.524;2023-08-01T13:51:56;3.28;;;2.80;;
21181;SDS011;10749;46.296;7.524;2023-08-01T13:54:21;3.58;;;2.72;;
21181;SDS011;10749;46.296;7.524;2023-08-01T13:56:47;3.25;;;2.72;;
21181;SDS011;10749;46.296;7.524;2023-08-01T13:59:12;3.42;;;3.13;;
21181;SDS011;10749;46.296;7.524;2023-08-01T14:01:37;4.10;;;3.20;;
21181;SDS011;10749;46.296;7.524;2023-08-01T14:04:03;4.15;;;3.05;;
21181;SDS011;10749;46.296;7.524;2023-08-01T14:06:29;3.35;;;3.05;;
21181;SDS011;10749;46.296;7.524;2023-08-01T14:08:54;3.53;;;2.90;;
21181;SDS011;10749;46.296;7.524;2023-08-01T14:11:19;3.50;;;3.20;;
21181;SDS011;10749;46.296;7.524;2023-08-01T14:13:45;4.03;;;3.10;;
21181;SDS011;10749;46.296;7.524;2023-08-01T14:16:10;3.80;;;2.95;;
21181;SDS011;10749;46.296;7.524;2023-08-01T14:18:35;3.42;;;2.65;;
21181;SDS011;10749;46.296;7.524;2023-08-01T14:21:01;3.10;;;2.58;;
21181;SDS011;10749;46.296;7.524;2023-08-01T14:23:26;3.13;;;2.83;;
21181;SDS011;10749;46.296;7.524;2023-08-01T14:25:52;4.68;;;3.00;;
21181;SDS011;10749;46.296;7.524;2023-08-01T14:28:17;4.97;;;2.45;;
21181;SDS011;10749;46.296;7.524;2023-08-01T14:30:42;3.10;;;2.67;;
21181;SDS011;10749;46.296;7.524;2023-08-01T14:33:08;3.88;;;2.65;;
21181;SDS011;10749;46.296;7.524;2023-08-01T14:35:34;3.92;;;2.78;;
21181;SDS011;10749;46.296;7.524;2023-08-01T14:38:00;2.92;;;2.50;;
21181;SDS011;10749;46.296;7.524;2023-08-01T14:40:26;5.05;;;2.65;;
21181;SDS011;10749;46.296;7.524;2023-08-01T14:42:51;3.80;;;2.80;;
21181;SDS011;10749;46.296;7.524;2023-08-01T14:45:17;3.25;;;2.80;;
21181;SDS011;10749;46.296;7.524;2023-08-01T14:47:43;3.90;;;2.80;;